Time;durP1;ratioP1;P1;durP2;ratioP2;P2;SDS_P1;SDS_P2;PMS_P1;PMS_P2;Temp;Humidity;BMP_temperature;BMP_pressure;BME280_temperature;BME280_humidity;BME280_pressure;Samples;Min_cycle;Max_cycle;Signal;HPM_P1;HPM_P2
2021/06/12 00:01:48;;;;;;;3.70;2.50;;;21.40;99.90;;;;;;5073112;28;20928;-71
2021/06/12 00:04:14;;;;;;;3.30;3.00;;;21.30;99.90;;;;;;5063941;28;20572;-71
2021/06/12 00:06:40;;;;;;;3.33;2.70;;;21.40;99.90;;;;;;5060667;28;20462;-70
2021/06/12 00:09:08;;;;;;;4.27;2.90;;;21.40;99.90;;;;;;5064900;28;20496;-72
2021/06/12 00:11:35;;;;;;;4.23;3.13;;;21.50;99.90;;;;;;5066825;28;20446;-70
2021/06/12 00:14:02;;;;;;;4.80;3.50;;;21.40;99.90;;;;;;5069148;28;20576;-70
2021/06/12 00:16:29;;;;;;;4.70;2.83;;;21.30;99.90;;;;;;5065593;28;20884;-70
2021/06/12 00:18:55;;;;;;;4.17;2.70;;;21.30;99.90;;;;;;5071608;28;20959;-70
2021/06/12 00:21:22;;;;;;;6.30;3.20;;;21.30;99.90;;;;;;5075031;28;20501;-72
2021/06/12 00:23:48;;;;;;;3.20;2.70;;;21.30;99.90;;;;;;5075045;28;20544;-71
2021/06/12 00:26:14;;;;;;;4.53;3.23;;;21.30;99.90;;;;;;5070312;28;20594;-69
2021/06/12 00:28:42;;;;;;;5.03;3.70;;;21.00;99.90;;;;;;5068375;28;20560;-71
2021/06/12 00:31:09;;;;;;;3.50;2.60;;;21.10;99.90;;;;;;5070411;28;21030;-71
2021/06/12 00:33:35;;;;;;;6.87;3.50;;;21.00;99.90;;;;;;5070434;28;20508;-71
2021/06/12 00:36:01;;;;;;;4.03;2.97;;;21.10;99.90;;;;;;5065590;28;20974;-70
2021/06/12 00:38:28;;;;;;;7.13;5.10;;;21.10;99.90;;;;;;5073847;28;20509;-70
2021/06/12 00:40:54;;;;;;;4.50;3.43;;;21.10;99.90;;;;;;5070642;28;21398;-70
2021/06/12 00:43:21;;;;;;;6.30;2.73;;;21.20;99.90;;;;;;5076468;28;21107;-71
2021/06/12 00:45:49;;;;;;;5.50;3.13;;;21.20;99.90;;;;;;5076916;28;20533;-71
2021/06/12 00:48:16;;;;;;;5.63;2.80;;;21.30;99.90;;;;;;5070569;28;20576;-71
2021/06/12 00:50:42;;;;;;;3.10;2.60;;;21.20;99.90;;;;;;5070010;28;20444;-71
2021/06/12 00:53:09;;;;;;;4.13;2.80;;;21.00;99.90;;;;;;5068617;28;20470;-71
2021/06/12 00:55:36;;;;;;;4.20;3.23;;;21.00;99.90;;;;;;5067517;28;20461;-72
2021/06/12 00:58:04;;;;;;;5.13;3.10;;;21.00;99.90;;;;;;5069812;28;20485;-70
2021/06/12 01:00:30;;;;;;;7.17;3.90;;;21.00;99.90;;;;;;5070931;28;20490;-71
2021/06/12 01:02:58;;;;;;;4.10;3.27;;;20.90;99.90;;;;;;5072223;28;20505;-71
2021/06/12 01:05:24;;;;;;;5.30;3.43;;;21.00;99.90;;;;;;5067861;28;21091;-71
2021/06/12 01:07:51;;;;;;;3.90;3.30;;;21.10;99.90;;;;;;5073509;28;20830;-71
2021/06/12 01:10:20;;;;;;;7.17;3.80;;;21.30;99.90;;;;;;5063131;28;20543;-71
2021/06/12 01:12:53;;;;;;;5.40;3.40;;;21.40;99.90;;;;;;5071561;28;20438;-72
2021/06/12 01:15:20;;;;;;;4.30;3.07;;;21.40;99.90;;;;;;5062631;28;20877;-71
2021/06/12 01:17:51;;;;;;;6.17;4.50;;;21.40;99.90;;;;;;5068576;28;21015;-71
2021/06/12 01:21:05;;;;;;;4.80;3.57;;;21.20;99.90;;;;;;5078057;28;20551;-70
2021/06/12 01:24:16;;;;;;;4.53;3.77;;;21.30;99.90;;;;;;5077641;28;20547;-69
2021/06/12 01:27:05;;;;;;;5.00;3.67;;;21.20;99.90;;;;;;5072080;28;20554;-71
2021/06/12 01:29:42;;;;;;;5.63;4.20;;;21.20;99.90;;;;;;5068990;28;20565;-72
2021/06/12 01:32:12;;;;;;;4.73;3.53;;;21.20;99.90;;;;;;5080711;28;20579;-71
2021/06/12 01:34:41;;;;;;;16.53;3.80;;;21.20;99.90;;;;;;5072241;28;20478;-70
2021/06/12 01:37:10;;;;;;;5.17;3.50;;;21.00;99.90;;;;;;5070692;28;20497;-71
2021/06/12 01:39:38;;;;;;;5.07;4.57;;;21.00;99.90;;;;;;5075774;28;20485;-70
2021/06/12 01:42:08;;;;;;;4.43;3.87;;;20.90;99.90;;;;;;5073293;28;20541;-70
2021/06/12 01:44:36;;;;;;;7.33;4.23;;;21.00;99.90;;;;;;5067642;28;20565;-70
2021/06/12 01:47:04;;;;;;;6.13;4.37;;;20.90;99.90;;;;;;5074273;28;20995;-70
2021/06/12 01:49:33;;;;;;;5.07;3.77;;;20.90;99.90;;;;;;5074957;28;20937;-72
2021/06/12 01:52:00;;;;;;;6.60;4.07;;;21.10;99.90;;;;;;5069934;28;20459;-70
2021/06/12 01:54:28;;;;;;;9.80;4.73;;;21.10;99.90;;;;;;5077080;28;20482;-72
2021/06/12 01:56:55;;;;;;;5.63;4.43;;;21.00;99.90;;;;;;5073855;28;20548;-70
2021/06/12 01:59:23;;;;;;;4.53;3.50;;;20.90;99.90;;;;;;5075881;28;20476;-70
2021/06/12 02:01:52;;;;;;;5.03;4.20;;;20.90;99.90;;;;;;5071667;28;20463;-70
2021/06/12 02:04:20;;;;;;;8.80;3.47;;;21.00;99.90;;;;;;5066807;28;20570;-70
2021/06/12 02:06:49;;;;;;;7.10;4.30;;;20.90;99.90;;;;;;5069748;28;20458;-71
2021/06/12 02:09:18;;;;;;;5.57;3.70;;;20.90;99.90;;;;;;5078152;28;20547;-72
2021/06/12 02:11:45;;;;;;;8.20;5.17;;;20.90;99.90;;;;;;5079044;28;20489;-72
2021/06/12 02:14:13;;;;;;;6.03;4.20;;;21.00;99.90;;;;;;5073181;28;20509;-71
2021/06/12 02:16:41;;;;;;;6.23;4.80;;;21.00;99.90;;;;;;5081942;28;20481;-71
2021/06/12 02:19:10;;;;;;;7.57;4.43;;;20.80;99.90;;;;;;5080750;28;20450;-70
2021/06/12 02:21:38;;;;;;;5.90;4.27;;;20.90;99.90;;;;;;5082423;28;20478;-71
2021/06/12 02:24:06;;;;;;;5.67;3.40;;;21.00;99.90;;;;;;5076363;28;21002;-70
2021/06/12 02:26:38;;;;;;;6.60;4.43;;;20.90;99.90;;;;;;5066785;28;20591;-72
2021/06/12 02:29:05;;;;;;;6.07;4.10;;;21.00;99.90;;;;;;5083833;28;20476;-70
2021/06/12 02:31:37;;;;;;;7.50;4.07;;;20.80;99.90;;;;;;5079180;28;20472;-71
2021/06/12 02:34:03;;;;;;;6.47;4.50;;;20.80;99.90;;;;;;5087453;28;20459;-71
2021/06/12 02:36:30;;;;;;;7.33;4.37;;;20.70;99.90;;;;;;5068649;28;21749;-71
2021/06/12 02:38:56;;;;;;;9.20;5.07;;;20.80;99.90;;;;;;5068479;28;20454;-71
2021/06/12 02:41:24;;;;;;;4.83;4.00;;;20.80;99.90;;;;;;5073257;28;20752;-71
2021/06/12 02:43:50;;;;;;;7.07;4.83;;;20.80;99.90;;;;;;5076804;28;20503;-71
2021/06/12 02:46:22;;;;;;;5.40;4.63;;;20.80;99.90;;;;;;5065311;28;20992;-71
2021/06/12 02:48:52;;;;;;;5.70;4.57;;;20.80;99.90;;;;;;5074126;28;22192;-71
2021/06/12 02:51:19;;;;;;;4.53;3.80;;;20.80;99.90;;;;;;5071730;28;20451;-70
2021/06/12 02:53:46;;;;;;;8.87;4.07;;;20.80;99.90;;;;;;5068235;28;20458;-70
2021/06/12 02:56:16;;;;;;;5.90;4.87;;;20.90;99.90;;;;;;5076171;28;20533;-71
2021/06/12 02:58:44;;;;;;;6.20;4.20;;;20.70;99.90;;;;;;5070425;28;20665;-72
2021/06/12 03:01:12;;;;;;;7.47;4.73;;;20.60;99.90;;;;;;5075733;28;20506;-70
2021/06/12 03:03:40;;;;;;;6.43;4.30;;;20.60;99.90;;;;;;5075760;28;20504;-71
2021/06/12 03:06:09;;;;;;;8.60;4.43;;;20.60;99.90;;;;;;5072088;28;20879;-70
2021/06/12 03:08:38;;;;;;;5.80;4.07;;;20.60;99.90;;;;;;5068508;28;20558;-70
2021/06/12 03:11:06;;;;;;;8.07;4.53;;;20.40;99.90;;;;;;5069611;28;20462;-70
2021/06/12 03:13:34;;;;;;;5.67;3.83;;;20.40;99.90;;;;;;5067422;28;20461;-70
2021/06/12 03:16:03;;;;;;;8.23;4.60;;;20.30;99.90;;;;;;5068472;28;20460;-71
2021/06/12 03:18:29;;;;;;;8.73;6.03;;;20.40;99.90;;;;;;5076393;28;20606;-72
2021/06/12 03:20:58;;;;;;;8.73;4.93;;;20.40;99.90;;;;;;5077006;28;20434;-70
2021/06/12 03:23:25;;;;;;;6.97;4.37;;;20.40;99.90;;;;;;5066943;28;20541;-70
2021/06/12 03:25:52;;;;;;;14.23;4.37;;;20.40;99.90;;;;;;5070800;28;20466;-71
2021/06/12 03:28:18;;;;;;;8.33;4.73;;;20.50;99.90;;;;;;5075349;28;20876;-70
2021/06/12 03:30:45;;;;;;;9.47;3.93;;;20.50;99.90;;;;;;5070409;28;20480;-69
2021/06/12 03:33:14;;;;;;;4.97;4.47;;;20.30;99.90;;;;;;5074203;28;20542;-70
2021/06/12 03:35:41;;;;;;;5.00;4.50;;;20.30;99.90;;;;;;5071416;28;20541;-73
2021/06/12 03:38:08;;;;;;;5.63;4.13;;;20.30;99.90;;;;;;5073729;28;20504;-70
2021/06/12 03:40:35;;;;;;;7.30;3.33;;;20.30;99.90;;;;;;5068202;28;20758;-71
2021/06/12 03:43:03;;;;;;;7.17;4.23;;;20.40;99.90;;;;;;5059621;28;20621;-71
2021/06/12 03:45:31;;;;;;;4.80;3.97;;;20.40;99.90;;;;;;5061228;28;20571;-73
2021/06/12 03:48:01;;;;;;;10.60;3.90;;;20.40;99.90;;;;;;5072209;28;20938;-70
2021/06/12 03:50:29;;;;;;;12.07;6.27;;;20.40;99.90;;;;;;5074020;28;20496;-69
2021/06/12 03:52:57;;;;;;;5.60;3.77;;;20.40;99.90;;;;;;5070330;28;20476;-69
2021/06/12 03:55:24;;;;;;;6.67;4.00;;;20.40;99.90;;;;;;5067933;28;20493;-71
2021/06/12 03:57:50;;;;;;;4.80;3.60;;;20.50;99.90;;;;;;5075696;28;20496;-70
2021/06/12 04:00:19;;;;;;;6.10;3.70;;;20.40;99.90;;;;;;5074381;28;21273;-70
2021/06/12 04:02:46;;;;;;;7.10;3.70;;;20.40;99.90;;;;;;5071468;28;20515;-71
2021/06/12 04:05:12;;;;;;;5.87;3.90;;;20.40;99.90;;;;;;5061916;28;20481;-71
2021/06/12 04:07:40;;;;;;;4.77;4.03;;;20.50;99.90;;;;;;5069862;28;20484;-71
2021/06/12 04:10:08;;;;;;;6.90;4.57;;;20.50;99.90;;;;;;5069890;28;20533;-73
2021/06/12 04:12:35;;;;;;;4.80;4.20;;;20.30;99.90;;;;;;5079406;28;20500;-71
2021/06/12 04:15:02;;;;;;;7.70;5.00;;;20.40;99.90;;;;;;5065729;28;20544;-73
2021/06/12 04:17:28;;;;;;;5.20;4.23;;;20.40;99.90;;;;;;5071549;28;20465;-71
2021/06/12 04:19:55;;;;;;;6.47;4.10;;;20.50;99.90;;;;;;5066205;28;20455;-71
2021/06/12 04:22:21;;;;;;;7.17;4.27;;;20.50;99.90;;;;;;5072438;28;20480;-70
2021/06/12 04:24:49;;;;;;;4.13;3.47;;;20.40;99.90;;;;;;5070177;28;20604;-70
2021/06/12 04:27:16;;;;;;;5.33;4.50;;;20.30;99.90;;;;;;5066710;28;20465;-70
2021/06/12 04:29:42;;;;;;;7.93;3.90;;;20.40;99.90;;;;;;5070647;28;20595;-70
2021/06/12 04:32:09;;;;;;;6.87;4.80;;;20.50;99.90;;;;;;5072914;28;20461;-71
2021/06/12 04:34:36;;;;;;;6.47;4.23;;;20.60;99.90;;;;;;5071093;28;20486;-72
2021/06/12 04:37:03;;;;;;;12.27;5.40;;;20.60;99.90;;;;;;5059867;28;20541;-70
2021/06/12 04:39:29;;;;;;;5.03;4.13;;;20.60;99.90;;;;;;5063804;28;20500;-71
2021/06/12 04:41:57;;;;;;;5.83;3.80;;;20.70;99.90;;;;;;5078307;28;20926;-70
2021/06/12 04:44:24;;;;;;;7.30;5.10;;;20.80;99.90;;;;;;5066201;28;20478;-71
2021/06/12 04:46:50;;;;;;;4.33;3.90;;;20.90;99.90;;;;;;5065752;28;20915;-71
2021/06/12 04:49:17;;;;;;;5.73;3.93;;;20.80;99.90;;;;;;5070315;28;20486;-70
2021/06/12 04:51:43;;;;;;;8.53;4.13;;;20.80;99.90;;;;;;5067357;28;20478;-71
2021/06/12 04:54:10;;;;;;;5.07;4.17;;;20.70;99.90;;;;;;5075677;28;20855;-71
2021/06/12 04:56:38;;;;;;;7.40;4.80;;;20.70;99.90;;;;;;5076044;28;20533;-71
2021/06/12 04:59:06;;;;;;;8.53;4.53;;;20.80;99.90;;;;;;5073565;28;20607;-71
2021/06/12 05:01:32;;;;;;;6.87;3.60;;;20.90;99.90;;;;;;5071516;28;20500;-71
2021/06/12 05:03:59;;;;;;;4.70;4.10;;;20.90;99.90;;;;;;5069702;28;20513;-70
2021/06/12 05:06:25;;;;;;;5.07;2.60;;;20.80;99.90;;;;;;5070145;28;20461;-70
2021/06/12 05:08:52;;;;;;;4.97;3.40;;;20.80;99.90;;;;;;5066052;28;20568;-72
2021/06/12 05:11:18;;;;;;;8.60;3.67;;;20.90;99.90;;;;;;5062832;28;20981;-71
2021/06/12 05:13:45;;;;;;;8.70;3.70;;;21.00;99.90;;;;;;5072570;28;20981;-72
2021/06/12 05:16:14;;;;;;;10.00;4.13;;;21.00;99.90;;;;;;5065832;28;20590;-71
2021/06/12 05:18:42;;;;;;;5.37;3.80;;;21.10;99.90;;;;;;5065146;28;20469;-71
2021/06/12 05:21:10;;;;;;;6.00;3.33;;;21.10;99.90;;;;;;5072943;28;20454;-72
2021/06/12 05:23:37;;;;;;;10.10;4.30;;;21.20;99.90;;;;;;5067820;28;20520;-71
2021/06/12 05:26:04;;;;;;;8.00;3.60;;;21.10;99.90;;;;;;5069389;28;20451;-72
2021/06/12 05:28:30;;;;;;;6.53;3.50;;;21.00;99.90;;;;;;5068144;28;21159;-72
2021/06/12 05:30:57;;;;;;;8.57;3.60;;;20.80;99.90;;;;;;5061673;28;21369;-72
2021/06/12 05:33:25;;;;;;;10.00;3.70;;;21.00;99.90;;;;;;5066299;28;20466;-71
2021/06/12 05:35:52;;;;;;;8.60;4.30;;;21.00;99.90;;;;;;5070445;28;26012;-74
2021/06/12 05:38:19;;;;;;;4.70;3.30;;;21.20;99.90;;;;;;5060837;28;20466;-71
2021/06/12 05:40:46;;;;;;;4.30;3.50;;;21.20;99.90;;;;;;5067400;28;20514;-71
2021/06/12 05:43:12;;;;;;;6.00;4.40;;;21.40;99.90;;;;;;5063253;28;21055;-72
2021/06/12 05:45:39;;;;;;;5.80;3.43;;;21.50;99.90;;;;;;5063551;28;20462;-70
2021/06/12 05:48:06;;;;;;;4.50;3.07;;;21.90;99.90;;;;;;5072834;28;20533;-70
2021/06/12 05:50:34;;;;;;;6.70;4.33;;;22.40;99.90;;;;;;5073178;28;20544;-71
2021/06/12 05:53:03;;;;;;;4.10;3.70;;;22.50;99.90;;;;;;5070862;28;20545;-71
2021/06/12 05:55:30;;;;;;;3.53;3.07;;;22.60;99.90;;;;;;5059041;28;21057;-73
2021/06/12 05:57:56;;;;;;;5.50;3.43;;;22.70;99.90;;;;;;5061363;28;20487;-72
2021/06/12 06:00:23;;;;;;;5.63;3.13;;;22.80;99.90;;;;;;5071716;28;21061;-70
2021/06/12 06:02:50;;;;;;;9.63;4.57;;;22.60;99.90;;;;;;5070340;28;20496;-70
2021/06/12 06:05:16;;;;;;;5.13;3.77;;;22.70;99.90;;;;;;5070050;28;20497;-70
2021/06/12 06:07:44;;;;;;;8.53;3.70;;;22.90;99.90;;;;;;5072285;28;20537;-71
2021/06/12 06:10:11;;;;;;;6.93;3.37;;;23.00;99.90;;;;;;5074127;28;20458;-71
2021/06/12 06:12:38;;;;;;;11.33;4.37;;;22.90;99.90;;;;;;5073105;28;21156;-70
2021/06/12 06:15:05;;;;;;;3.77;3.43;;;22.70;99.90;;;;;;5068952;28;21018;-72
2021/06/12 06:17:32;;;;;;;6.43;3.43;;;22.30;99.90;;;;;;5075190;28;20569;-71
2021/06/12 06:19:58;;;;;;;5.47;3.30;;;22.10;99.90;;;;;;5072981;28;20603;-70
2021/06/12 06:22:25;;;;;;;4.97;3.63;;;22.20;99.90;;;;;;5072114;28;20474;-69
2021/06/12 06:24:53;;;;;;;7.40;4.80;;;22.20;99.90;;;;;;5075594;28;20577;-71
2021/06/12 06:27:19;;;;;;;9.47;5.03;;;22.30;99.90;;;;;;5075513;28;20485;-70
2021/06/12 06:29:46;;;;;;;8.30;4.43;;;22.10;99.90;;;;;;5075828;28;21453;-72
2021/06/12 06:32:12;;;;;;;7.47;4.77;;;22.10;99.90;;;;;;5087348;28;20454;-71
2021/06/12 06:34:39;;;;;;;9.73;4.70;;;22.10;99.90;;;;;;5077793;28;20504;-71
2021/06/12 06:37:05;;;;;;;7.40;4.53;;;22.00;99.90;;;;;;5056897;28;20487;-70
2021/06/12 06:39:32;;;;;;;7.83;3.40;;;22.20;99.90;;;;;;5066641;28;20489;-71
2021/06/12 06:42:00;;;;;;;9.00;5.17;;;22.40;99.90;;;;;;5055689;28;20523;-71
2021/06/12 06:44:27;;;;;;;8.70;5.10;;;22.50;99.90;;;;;;5069627;28;20525;-69
2021/06/12 06:46:54;;;;;;;5.87;5.20;;;22.60;99.90;;;;;;5059515;28;20459;-69
2021/06/12 06:49:20;;;;;;;9.17;5.90;;;22.70;99.90;;;;;;5073862;28;20554;-71
2021/06/12 06:51:47;;;;;;;5.90;3.90;;;22.40;99.90;;;;;;5077017;28;20545;-71
2021/06/12 06:54:14;;;;;;;14.97;5.87;;;22.50;99.90;;;;;;5083452;28;20474;-72
2021/06/12 06:56:40;;;;;;;8.03;5.03;;;22.50;99.90;;;;;;5086088;28;20454;-72
2021/06/12 06:59:08;;;;;;;6.97;5.30;;;22.30;99.90;;;;;;5085965;28;20491;-71
2021/06/12 07:01:37;;;;;;;13.10;5.93;;;22.00;99.90;;;;;;5085228;28;20536;-71
2021/06/12 07:04:04;;;;;;;9.03;5.97;;;21.90;99.90;;;;;;5071138;28;20498;-72
2021/06/12 07:06:31;;;;;;;8.80;7.17;;;21.70;99.90;;;;;;5073875;28;20458;-71
2021/06/12 07:08:57;;;;;;;9.63;6.40;;;21.40;99.90;;;;;;5082843;28;20457;-72
2021/06/12 07:11:24;;;;;;;7.90;6.40;;;21.20;99.90;;;;;;5074979;28;20469;-73
2021/06/12 07:13:51;;;;;;;11.30;8.13;;;21.00;99.90;;;;;;5092251;28;20604;-71
2021/06/12 07:16:18;;;;;;;16.00;9.90;;;21.10;99.90;;;;;;5088966;28;20465;-72
2021/06/12 07:18:45;;;;;;;9.27;8.30;;;21.00;99.90;;;;;;5093563;28;20458;-71
2021/06/12 07:21:12;;;;;;;10.53;7.67;;;20.80;99.90;;;;;;5088619;28;20453;-73
2021/06/12 07:23:38;;;;;;;13.07;8.63;;;20.70;99.90;;;;;;5083408;28;20482;-72
2021/06/12 07:26:05;;;;;;;11.30;8.40;;;20.50;99.90;;;;;;5072008;28;21013;-72
2021/06/12 07:28:31;;;;;;;8.83;6.93;;;20.50;99.90;;;;;;5080066;28;20471;-71
2021/06/12 07:30:58;;;;;;;15.30;9.00;;;20.50;99.90;;;;;;5074855;28;20454;-72
2021/06/12 07:33:26;;;;;;;11.10;7.80;;;20.50;99.90;;;;;;5080445;28;20486;-72
2021/06/12 07:35:53;;;;;;;11.57;8.43;;;20.50;99.90;;;;;;5077398;28;20535;-73
2021/06/12 07:38:20;;;;;;;9.33;7.90;;;20.70;99.90;;;;;;5086878;28;20527;-72
2021/06/12 07:40:47;;;;;;;12.13;9.10;;;20.90;99.90;;;;;;5087187;28;20826;-72
2021/06/12 07:43:18;;;;;;;10.13;8.13;;;21.20;99.90;;;;;;5082977;28;20461;-72
2021/06/12 07:45:45;;;;;;;13.37;8.50;;;21.30;99.90;;;;;;5078123;28;20468;-72
2021/06/12 07:48:12;;;;;;;11.87;8.53;;;21.20;99.90;;;;;;5088286;28;20447;-72
2021/06/12 07:50:40;;;;;;;11.00;8.13;;;21.30;99.90;;;;;;5097092;28;20457;-72
2021/06/12 07:53:06;;;;;;;21.80;9.50;;;21.20;99.90;;;;;;5094169;28;20530;-72
2021/06/12 07:55:33;;;;;;;14.97;10.80;;;21.10;99.90;;;;;;5088780;28;20481;-72
2021/06/12 07:58:00;;;;;;;14.87;9.97;;;21.10;99.90;;;;;;5089374;28;20460;-71
2021/06/12 08:00:27;;;;;;;11.37;8.87;;;21.20;99.90;;;;;;5077117;28;20446;-72
2021/06/12 08:02:53;;;;;;;17.37;9.80;;;21.20;99.90;;;;;;5071994;28;21021;-72
2021/06/12 08:05:20;;;;;;;14.80;9.10;;;21.10;99.90;;;;;;5078716;28;20535;-71
2021/06/12 08:07:48;;;;;;;18.87;9.30;;;20.90;99.90;;;;;;5086602;28;20453;-72
2021/06/12 08:10:15;;;;;;;13.87;10.13;;;20.80;99.90;;;;;;5075861;28;20463;-71
2021/06/12 08:12:42;;;;;;;14.30;8.57;;;20.70;99.90;;;;;;5075160;28;20804;-72
2021/06/12 08:15:10;;;;;;;13.10;8.67;;;20.60;99.90;;;;;;5088251;28;20464;-71
2021/06/12 08:17:37;;;;;;;14.90;10.63;;;20.70;99.90;;;;;;5087506;28;20435;-72
2021/06/12 08:20:05;;;;;;;14.87;9.30;;;20.80;99.90;;;;;;5077851;28;20473;-72
2021/06/12 08:22:32;;;;;;;18.23;11.80;;;20.60;99.90;;;;;;5086036;28;20812;-70
2021/06/12 08:25:00;;;;;;;10.83;8.40;;;20.60;99.90;;;;;;5079513;28;20473;-72
2021/06/12 08:27:26;;;;;;;12.77;9.50;;;20.60;99.90;;;;;;5072836;28;20458;-72
2021/06/12 08:29:53;;;;;;;12.90;9.70;;;20.40;99.90;;;;;;5078911;28;20736;-71
2021/06/12 08:32:19;;;;;;;8.93;7.27;;;20.40;99.90;;;;;;5083222;28;20445;-71
2021/06/12 08:34:46;;;;;;;13.00;9.53;;;20.40;99.90;;;;;;5075405;28;20573;-71
2021/06/12 08:37:13;;;;;;;14.03;8.37;;;20.50;99.90;;;;;;5079120;28;20468;-71
2021/06/12 08:39:39;;;;;;;10.10;8.43;;;20.60;99.90;;;;;;5077682;28;20473;-72
2021/06/12 08:42:08;;;;;;;13.87;9.73;;;21.00;99.90;;;;;;5084477;28;20460;-72
2021/06/12 08:44:35;;;;;;;18.13;8.97;;;21.40;99.90;;;;;;5082720;28;20954;-71
2021/06/12 08:47:02;;;;;;;15.80;9.23;;;21.80;99.90;;;;;;5076775;28;20466;-71
2021/06/12 08:49:29;;;;;;;10.97;7.73;;;22.40;99.90;;;;;;5085267;28;20771;-71
2021/06/12 08:51:56;;;;;;;10.57;8.10;;;23.30;99.90;;;;;;5080632;28;20477;-71
2021/06/12 08:54:26;;;;;;;7.57;6.67;;;23.50;99.90;;;;;;5086333;28;20457;-73
2021/06/12 08:56:53;;;;;;;7.93;6.40;;;24.30;99.90;;;;;;5076286;28;20486;-72
2021/06/12 08:59:21;;;;;;;8.10;7.10;;;25.10;99.90;;;;;;5079775;28;20453;-71
2021/06/12 09:01:49;;;;;;;13.13;8.93;;;25.00;99.90;;;;;;5077677;28;20811;-72
2021/06/12 09:04:30;;;;;;;9.23;7.50;;;24.70;99.90;;;;;;5066890;28;20482;-72
2021/06/12 09:07:19;;;;;;;9.10;8.03;;;24.00;99.90;;;;;;5075387;28;20466;-71
2021/06/12 09:09:46;;;;;;;11.67;7.37;;;23.70;99.90;;;;;;5066660;28;20465;-71
2021/06/12 09:12:14;;;;;;;12.33;9.63;;;23.70;99.90;;;;;;5079817;28;20457;-71
2021/06/12 09:14:42;;;;;;;9.80;6.80;;;24.20;99.90;;;;;;5076581;28;20450;-71
2021/06/12 09:17:09;;;;;;;9.10;8.20;;;24.10;99.90;;;;;;5076770;28;20469;-70
2021/06/12 09:19:40;;;;;;;11.83;8.77;;;23.60;99.90;;;;;;5073383;28;20496;-72
2021/06/12 09:22:09;;;;;;;14.67;9.30;;;23.00;99.90;;;;;;5075012;28;20458;-72
2021/06/12 09:24:39;;;;;;;13.83;9.20;;;22.60;99.90;;;;;;5078042;28;20493;-72
2021/06/12 09:27:11;;;;;;;17.43;9.57;;;22.50;99.90;;;;;;5075217;28;20581;-72
2021/06/12 09:29:40;;;;;;;13.87;9.97;;;22.60;99.90;;;;;;5075504;28;20459;-71
2021/06/12 09:32:18;;;;;;;11.87;7.83;;;22.40;99.90;;;;;;5080248;28;20474;-72
2021/06/12 09:34:46;;;;;;;8.80;6.40;;;22.50;99.90;;;;;;5074117;28;20552;-70
2021/06/12 09:37:14;;;;;;;10.43;8.67;;;22.60;99.90;;;;;;5075658;28;20469;-70
2021/06/12 09:39:41;;;;;;;13.50;8.83;;;22.70;99.90;;;;;;5077294;28;20468;-70
2021/06/12 09:42:08;;;;;;;9.70;7.60;;;22.90;99.90;;;;;;5089486;28;20450;-71
2021/06/12 09:44:37;;;;;;;9.87;8.13;;;23.30;99.90;;;;;;5080385;28;20493;-71
2021/06/12 09:47:06;;;;;;;13.70;8.20;;;23.30;99.90;;;;;;5083476;28;20457;-71
2021/06/12 09:49:36;;;;;;;14.20;7.33;;;23.50;99.90;;;;;;5088110;28;20782;-71
2021/06/12 09:52:05;;;;;;;13.07;8.17;;;23.20;99.90;;;;;;5083138;28;20468;-70
2021/06/12 09:54:37;;;;;;;14.57;7.93;;;23.40;99.90;;;;;;5082578;28;20489;-72
2021/06/12 09:57:05;;;;;;;9.37;6.87;;;23.30;99.90;;;;;;5078110;28;20454;-72
2021/06/12 09:59:39;;;;;;;8.30;6.60;;;23.50;99.90;;;;;;5079099;28;20451;-72
2021/06/12 10:02:06;;;;;;;10.30;7.63;;;23.90;99.90;;;;;;5082825;28;20941;-72
2021/06/12 10:04:34;;;;;;;11.70;7.80;;;24.30;99.90;;;;;;5088591;28;20482;-72
2021/06/12 10:07:00;;;;;;;10.27;7.57;;;25.10;99.90;;;;;;5078661;28;20462;-72
2021/06/12 10:09:27;;;;;;;9.30;7.87;;;25.80;99.90;;;;;;5082111;28;20466;-73
2021/06/12 10:11:54;;;;;;;8.53;5.30;;;26.30;99.90;;;;;;5083121;28;20914;-71
2021/06/12 10:14:22;;;;;;;11.50;6.20;;;26.70;99.90;;;;;;5084257;28;20998;-72
2021/06/12 10:16:49;;;;;;;10.47;7.33;;;26.30;99.90;;;;;;5080989;28;20989;-71
2021/06/12 10:19:17;;;;;;;8.50;7.37;;;25.40;99.90;;;;;;5078146;28;20840;-71
2021/06/12 10:21:47;;;;;;;12.60;7.30;;;24.70;99.90;;;;;;5082755;28;20609;-70
2021/06/12 10:24:14;;;;;;;14.03;9.00;;;24.30;99.90;;;;;;5081848;28;20489;-69
2021/06/12 10:26:42;;;;;;;11.00;7.10;;;24.20;99.90;;;;;;5080466;28;20664;-70
2021/06/12 10:29:09;;;;;;;10.40;7.77;;;23.90;99.90;;;;;;5083389;28;20450;-70
2021/06/12 10:31:37;;;;;;;10.07;7.23;;;23.30;99.90;;;;;;5083236;28;20458;-70
2021/06/12 10:34:05;;;;;;;10.73;7.50;;;23.10;99.90;;;;;;5083517;28;20559;-71
2021/06/12 10:36:33;;;;;;;8.50;5.90;;;24.30;99.90;;;;;;5085703;28;20463;-71
2021/06/12 10:39:12;;;;;;;11.33;8.47;;;25.80;99.90;;;;;;5083009;28;20553;-71
2021/06/12 10:41:39;;;;;;;6.77;6.07;;;27.10;99.90;;;;;;5083050;28;20437;-70
2021/06/12 10:44:06;;;;;;;12.17;7.30;;;28.00;99.90;;;;;;5084631;28;21049;-70
2021/06/12 10:46:33;;;;;;;8.77;7.30;;;28.20;99.90;;;;;;5082115;28;20980;-70
2021/06/12 10:49:01;;;;;;;7.53;6.83;;;28.20;99.90;;;;;;5086429;28;20462;-70
2021/06/12 10:51:44;;;;;;;9.10;6.40;;;28.30;99.90;;;;;;5088616;28;20454;-70
2021/06/12 10:54:22;;;;;;;8.30;5.30;;;28.40;99.90;;;;;;5090535;28;20449;-70
2021/06/12 10:56:50;;;;;;;6.37;5.30;;;28.50;99.90;;;;;;5083170;28;20490;-69
2021/06/12 10:59:45;;;;;;;7.00;5.50;;;28.10;99.90;;;;;;5091671;28;21061;-72
2021/06/12 11:02:15;;;;;;;4.67;4.20;;;28.30;99.90;;;;;;5074638;28;21011;-71
2021/06/12 11:04:51;;;;;;;3.77;3.37;;;28.60;99.90;;;;;;5086035;28;20485;-70
2021/06/12 11:07:31;;;;;;;15.00;4.40;;;28.80;99.90;;;;;;5080043;28;21085;-70
2021/06/12 11:10:24;;;;;;;7.53;3.60;;;28.60;99.90;;;;;;5080218;28;20438;-71
2021/06/12 11:12:52;;;;;;;7.87;3.70;;;29.30;99.90;;;;;;5086663;28;20453;-70
2021/06/12 11:15:30;;;;;;;7.30;2.73;;;29.10;99.90;;;;;;5087001;28;20464;-73
2021/06/12 11:18:17;;;;;;;4.53;4.13;;;26.50;99.90;;;;;;5081162;28;20457;-71
2021/06/12 11:20:47;;;;;;;4.53;4.10;;;25.50;99.90;;;;;;5076386;28;20953;-71
2021/06/12 11:23:16;;;;;;;5.23;2.60;;;25.40;99.90;;;;;;5073653;28;20549;-71
2021/06/12 11:25:56;;;;;;;3.47;2.77;;;25.30;99.90;;;;;;5085688;28;20493;-71
2021/06/12 11:28:28;;;;;;;5.23;2.43;;;25.10;99.90;;;;;;5091293;28;20480;-70
2021/06/12 11:31:10;;;;;;;4.57;2.33;;;24.90;99.90;;;;;;5087939;28;20470;-71
2021/06/12 11:33:36;;;;;;;7.63;2.40;;;25.30;99.90;;;;;;5082383;28;21010;-71
2021/06/12 11:36:03;;;;;;;3.73;3.10;;;25.60;99.90;;;;;;5075668;28;20453;-70
2021/06/12 11:38:31;;;;;;;6.63;2.67;;;25.40;99.90;;;;;;5080644;28;21035;-70
2021/06/12 11:41:01;;;;;;;4.23;2.33;;;25.20;99.90;;;;;;5081740;28;20505;-71
2021/06/12 11:43:37;;;;;;;4.00;2.70;;;25.50;99.90;;;;;;5090625;28;20498;-71
2021/06/12 11:46:05;;;;;;;2.67;1.77;;;26.40;99.90;;;;;;5083633;28;20453;-70
2021/06/12 11:48:37;;;;;;;2.80;2.03;;;26.30;99.90;;;;;;5089500;28;20492;-71
2021/06/12 11:51:11;;;;;;;3.83;2.37;;;26.20;99.90;;;;;;5086841;28;21027;-71
2021/06/12 11:53:38;;;;;;;2.43;2.20;;;26.00;99.90;;;;;;5089845;28;20841;-69
2021/06/12 11:56:06;;;;;;;3.07;2.77;;;25.60;99.90;;;;;;5082996;28;20483;-70
2021/06/12 11:58:32;;;;;;;2.40;2.20;;;25.50;99.90;;;;;;5083308;28;20860;-71
2021/06/12 12:01:00;;;;;;;7.60;3.13;;;26.30;99.90;;;;;;5086734;28;20536;-71
2021/06/12 12:03:26;;;;;;;5.30;3.20;;;26.70;99.90;;;;;;5082602;28;20470;-70
2021/06/12 12:05:58;;;;;;;3.30;2.67;;;25.80;99.90;;;;;;5077507;28;20476;-71
2021/06/12 12:08:25;;;;;;;4.37;2.90;;;25.30;99.90;;;;;;5082247;28;20451;-70
2021/06/12 12:10:55;;;;;;;3.43;2.50;;;24.70;99.90;;;;;;5084640;28;20499;-70
2021/06/12 12:13:34;;;;;;;12.57;3.60;;;24.30;99.90;;;;;;5075873;28;20511;-70
2021/06/12 12:16:01;;;;;;;3.30;2.50;;;24.10;99.90;;;;;;5073150;28;20586;-71
2021/06/12 12:18:27;;;;;;;4.87;3.37;;;24.10;99.90;;;;;;5084512;28;20449;-70
2021/06/12 12:20:57;;;;;;;3.17;2.57;;;24.10;99.90;;;;;;5079620;28;20531;-71
2021/06/12 12:23:26;;;;;;;2.30;2.10;;;24.30;99.90;;;;;;5075285;28;20477;-72
2021/06/12 12:26:05;;;;;;;3.77;3.33;;;25.00;99.90;;;;;;5078095;28;20484;-70
2021/06/12 12:39:01;;;;;;;9.73;3.40;;;27.40;99.90;;;;;;5077414;28;20416;-71
2021/06/12 12:41:29;;;;;;;13.63;3.23;;;26.80;99.90;;;;;;5075645;28;20488;-71
2021/06/12 12:44:13;;;;;;;5.70;3.30;;;26.10;99.90;;;;;;5087126;28;20990;-71
2021/06/12 12:46:41;;;;;;;8.93;3.40;;;26.10;99.90;;;;;;5085589;28;20453;-71
2021/06/12 12:49:09;;;;;;;8.30;3.37;;;26.60;99.90;;;;;;5074525;28;20569;-71
2021/06/12 12:51:36;;;;;;;3.70;3.00;;;27.00;99.90;;;;;;5073341;28;20553;-70
2021/06/12 12:54:11;;;;;;;3.60;2.37;;;27.80;99.90;;;;;;5084498;28;20465;-71
2021/06/12 12:56:45;;;;;;;4.53;3.30;;;28.40;97.30;;;;;;5082532;28;20454;-71
2021/06/12 12:59:24;;;;;;;3.77;2.77;;;28.50;97.20;;;;;;5077086;28;20466;-71
2021/06/12 13:01:51;;;;;;;3.90;2.73;;;28.40;96.80;;;;;;5090680;28;20510;-71